sensor_id;sensor_type;location;lat;lon;timestamp;pressure;altitude;pressure_sealevel;temperature;humidity
13974;BME280;7060;43.770;4.008;2022-10-28T00:01:23;102164.06;;;15.93;78.25
13974;BME280;7060;43.770;4.008;2022-10-28T00:03:54;102154.81;;;15.96;78.05
13974;BME280;7060;43.770;4.008;2022-10-28T00:06:24;102151.41;;;15.94;78.16
13974;BME280;7060;43.770;4.008;2022-10-28T00:08:53;102149.72;;;15.92;78.38
13974;BME280;7060;43.770;4.008;2022-10-28T00:11:24;102153.28;;;15.93;78.48
13974;BME280;7060;43.770;4.008;2022-10-28T00:13:55;102158.66;;;15.93;78.58
13974;BME280;7060;43.770;4.008;2022-10-28T00:16:26;102143.34;;;15.94;78.79
13974;BME280;7060;43.770;4.008;2022-10-28T00:18:57;102155.97;;;15.93;78.83
13974;BME280;7060;43.770;4.008;2022-10-28T00:21:27;102102.22;;;15.63;79.00
13974;BME280;7060;43.770;4.008;2022-10-28T00:23:56;102139.06;;;15.91;79.22
13974;BME280;7060;43.770;4.008;2022-10-28T00:26:26;102145.31;;;15.91;79.39
13974;BME280;7060;43.770;4.008;2022-10-28T00:28:58;102149.56;;;15.94;79.47
13974;BME280;7060;43.770;4.008;2022-10-28T00:31:29;102149.97;;;15.99;79.24
13974;BME280;7060;43.770;4.008;2022-10-28T00:34:00;102151.66;;;16.00;79.17
13974;BME280;7060;43.770;4.008;2022-10-28T00:36:29;102097.94;;;15.70;79.18
13974;BME280;7060;43.770;4.008;2022-10-28T00:39:00;102144.97;;;16.04;79.28
13974;BME280;7060;43.770;4.008;2022-10-28T00:41:30;102145.53;;;16.08;79.44
13974;BME280;7060;43.770;4.008;2022-10-28T00:44:01;102146.81;;;16.13;79.07
13974;BME280;7060;43.770;4.008;2022-10-28T00:46:34;102147.94;;;16.11;78.99
13974;BME280;7060;43.770;4.008;2022-10-28T00:49:11;102146.38;;;16.08;78.94
13974;BME280;7060;43.770;4.008;2022-10-28T00:51:43;102143.84;;;16.07;79.35
13974;BME280;7060;43.770;4.008;2022-10-28T00:54:13;102128.66;;;15.96;79.45
13974;BME280;7060;43.770;4.008;2022-10-28T00:56:45;102142.97;;;16.06;79.54
13974;BME280;7060;43.770;4.008;2022-10-28T00:59:18;102141.28;;;16.05;79.68
13974;BME280;7060;43.770;4.008;2022-10-28T01:01:48;102137.03;;;16.03;79.98
13974;BME280;7060;43.770;4.008;2022-10-28T01:04:17;102141.00;;;16.08;79.76
13974;BME280;7060;43.770;4.008;2022-10-28T01:06:47;102137.16;;;16.11;79.54
13974;BME280;7060;43.770;4.008;2022-10-28T01:09:15;102134.75;;;16.08;79.69
13974;BME280;7060;43.770;4.008;2022-10-28T01:11:53;102139.84;;;16.11;79.40
13974;BME280;7060;43.770;4.008;2022-10-28T01:14:40;102132.91;;;16.08;79.50
13974;BME280;7060;43.770;4.008;2022-10-28T01:17:19;102115.59;;;16.01;79.43
13974;BME280;7060;43.770;4.008;2022-10-28T01:23:22;102126.38;;;16.01;79.63
13974;BME280;7060;43.770;4.008;2022-10-28T01:26:29;102127.25;;;16.02;79.34
13974;BME280;7060;43.770;4.008;2022-10-28T01:29:42;102123.97;;;15.98;79.33
13974;BME280;7060;43.770;4.008;2022-10-28T01:32:22;102127.69;;;15.97;79.63
13974;BME280;7060;43.770;4.008;2022-10-28T01:35:02;102127.38;;;16.00;79.27
13974;BME280;7060;43.770;4.008;2022-10-28T01:37:36;102128.53;;;15.98;79.44
13974;BME280;7060;43.770;4.008;2022-10-28T01:40:07;102122.97;;;15.99;79.28
13974;BME280;7060;43.770;4.008;2022-10-28T01:42:40;102128.22;;;16.01;79.14
13974;BME280;7060;43.770;4.008;2022-10-28T01:45:14;102134.63;;;16.00;79.50
13974;BME280;7060;43.770;4.008;2022-10-28T01:47:52;102125.53;;;16.01;79.43
13974;BME280;7060;43.770;4.008;2022-10-28T01:50:28;102125.69;;;15.99;79.72
13974;BME280;7060;43.770;4.008;2022-10-28T01:53:03;102126.69;;;15.98;80.00
13974;BME280;7060;43.770;4.008;2022-10-28T01:55:37;102073.69;;;15.70;80.10
13974;BME280;7060;43.770;4.008;2022-10-28T01:58:11;102121.00;;;16.01;80.09
13974;BME280;7060;43.770;4.008;2022-10-28T02:00:42;102097.22;;;15.87;80.49
13974;BME280;7060;43.770;4.008;2022-10-28T02:03:15;102115.75;;;16.00;80.72
13974;BME280;7060;43.770;4.008;2022-10-28T02:05:45;102105.66;;;16.02;80.49
13974;BME280;7060;43.770;4.008;2022-10-28T02:11:43;102105.66;;;16.02;80.98
13974;BME280;7060;43.770;4.008;2022-10-28T02:14:22;102112.59;;;16.04;81.46
13974;BME280;7060;43.770;4.008;2022-10-28T02:16:59;102117.72;;;16.07;81.41
13974;BME280;7060;43.770;4.008;2022-10-28T02:19:38;102100.13;;;16.03;81.08
13974;BME280;7060;43.770;4.008;2022-10-28T02:22:17;102116.13;;;16.14;81.00
13974;BME280;7060;43.770;4.008;2022-10-28T02:24:53;102091.63;;;15.98;80.80
13974;BME280;7060;43.770;4.008;2022-10-28T02:27:30;102110.88;;;16.13;80.19
13974;BME280;7060;43.770;4.008;2022-10-28T02:30:04;102113.88;;;16.10;80.65
13974;BME280;7060;43.770;4.008;2022-10-28T02:32:37;102123.50;;;16.12;80.16
13974;BME280;7060;43.770;4.008;2022-10-28T02:35:11;102109.47;;;16.09;80.24
13974;BME280;7060;43.770;4.008;2022-10-28T02:37:42;102104.22;;;16.07;80.60
13974;BME280;7060;43.770;4.008;2022-10-28T02:40:16;102097.13;;;16.06;80.57
13974;BME280;7060;43.770;4.008;2022-10-28T02:42:48;102101.53;;;16.07;80.67
13974;BME280;7060;43.770;4.008;2022-10-28T02:45:20;102068.09;;;15.90;80.38
13974;BME280;7060;43.770;4.008;2022-10-28T02:47:55;102107.47;;;16.11;80.41
13974;BME280;7060;43.770;4.008;2022-10-28T02:50:30;102108.19;;;16.13;80.23
13974;BME280;7060;43.770;4.008;2022-10-28T02:53:01;102100.22;;;16.11;80.30
13974;BME280;7060;43.770;4.008;2022-10-28T02:55:34;102095.69;;;16.12;80.04
13974;BME280;7060;43.770;4.008;2022-10-28T02:58:04;102094.28;;;16.08;80.07
13974;BME280;7060;43.770;4.008;2022-10-28T03:00:33;102080.53;;;16.01;80.24
13974;BME280;7060;43.770;4.008;2022-10-28T03:03:02;102084.22;;;16.00;80.20
13974;BME280;7060;43.770;4.008;2022-10-28T03:05:32;102083.53;;;15.98;80.33
13974;BME280;7060;43.770;4.008;2022-10-28T03:08:00;102076.44;;;15.97;80.29
13974;BME280;7060;43.770;4.008;2022-10-28T03:10:29;102080.81;;;15.98;80.12
13974;BME280;7060;43.770;4.008;2022-10-28T03:12:57;102091.63;;;15.98;79.80
13974;BME280;7060;43.770;4.008;2022-10-28T03:15:25;102087.84;;;15.91;80.00
13974;BME280;7060;43.770;4.008;2022-10-28T03:17:53;102086.41;;;15.87;80.13
13974;BME280;7060;43.770;4.008;2022-10-28T03:20:22;102086.41;;;15.87;80.45
13974;BME280;7060;43.770;4.008;2022-10-28T03:22:52;102093.22;;;15.91;80.28
13974;BME280;7060;43.770;4.008;2022-10-28T03:25:20;102089.53;;;15.92;80.03
13974;BME280;7060;43.770;4.008;2022-10-28T03:27:49;102089.69;;;15.90;79.85
13974;BME280;7060;43.770;4.008;2022-10-28T03:30:17;102083.72;;;15.87;79.73
13974;BME280;7060;43.770;4.008;2022-10-28T03:32:45;102083.31;;;15.82;79.54
13974;BME280;7060;43.770;4.008;2022-10-28T03:35:13;102082.19;;;15.75;79.48
13974;BME280;7060;43.770;4.008;2022-10-28T03:37:42;102091.41;;;15.72;79.90
13974;BME280;7060;43.770;4.008;2022-10-28T03:40:12;102088.03;;;15.70;79.82
13974;BME280;7060;43.770;4.008;2022-10-28T03:42:41;102089.88;;;15.70;79.79
13974;BME280;7060;43.770;4.008;2022-10-28T03:45:09;102078.41;;;15.68;79.71
13974;BME280;7060;43.770;4.008;2022-10-28T03:47:39;102084.47;;;15.70;79.87
13974;BME280;7060;43.770;4.008;2022-10-28T03:50:07;102091.56;;;15.71;79.48
13974;BME280;7060;43.770;4.008;2022-10-28T03:52:36;102082.09;;;15.67;79.46
13974;BME280;7060;43.770;4.008;2022-10-28T03:55:05;102081.94;;;15.68;79.52
13974;BME280;7060;43.770;4.008;2022-10-28T03:57:35;102068.91;;;15.64;79.40
13974;BME280;7060;43.770;4.008;2022-10-28T04:00:04;102076.00;;;15.65;79.39
13974;BME280;7060;43.770;4.008;2022-10-28T04:02:39;102078.53;;;15.56;79.42
13974;BME280;7060;43.770;4.008;2022-10-28T04:05:08;102087.63;;;15.55;79.85
13974;BME280;7060;43.770;4.008;2022-10-28T04:07:36;102088.03;;;15.61;79.76
13974;BME280;7060;43.770;4.008;2022-10-28T04:10:05;102082.50;;;15.62;79.74
13974;BME280;7060;43.770;4.008;2022-10-28T04:12:34;102080.41;;;15.66;79.71
13974;BME280;7060;43.770;4.008;2022-10-28T04:15:03;102081.09;;;15.68;79.66
13974;BME280;7060;43.770;4.008;2022-10-28T04:17:33;102087.50;;;15.67;79.68
13974;BME280;7060;43.770;4.008;2022-10-28T04:20:01;102082.38;;;15.64;79.84
13974;BME280;7060;43.770;4.008;2022-10-28T04:22:29;102071.00;;;15.60;79.99
13974;BME280;7060;43.770;4.008;2022-10-28T04:24:58;102091.88;;;15.68;80.04
13974;BME280;7060;43.770;4.008;2022-10-28T04:27:26;102091.72;;;15.69;80.29
13974;BME280;7060;43.770;4.008;2022-10-28T04:29:56;102085.47;;;15.69;80.42
13974;BME280;7060;43.770;4.008;2022-10-28T04:32:24;102090.84;;;15.69;80.73
13974;BME280;7060;43.770;4.008;2022-10-28T04:34:52;102091.56;;;15.71;80.94
13974;BME280;7060;43.770;4.008;2022-10-28T04:37:21;102096.09;;;15.70;81.07
13974;BME280;7060;43.770;4.008;2022-10-28T04:39:49;102085.66;;;15.67;81.26
13974;BME280;7060;43.770;4.008;2022-10-28T04:42:17;102095.25;;;15.70;81.54
13974;BME280;7060;43.770;4.008;2022-10-28T04:44:45;102095.81;;;15.73;81.69
13974;BME280;7060;43.770;4.008;2022-10-28T04:47:15;102099.78;;;15.79;81.48
13974;BME280;7060;43.770;4.008;2022-10-28T04:49:43;102104.88;;;15.82;81.28
13974;BME280;7060;43.770;4.008;2022-10-28T04:52:12;102110.41;;;15.80;80.97
13974;BME280;7060;43.770;4.008;2022-10-28T04:54:41;102106.16;;;15.78;81.18
13974;BME280;7060;43.770;4.008;2022-10-28T04:57:10;102108.31;;;15.74;81.45
13974;BME280;7060;43.770;4.008;2022-10-28T04:59:38;102110.84;;;15.76;81.27
13974;BME280;7060;43.770;4.008;2022-10-28T05:02:06;102110.84;;;15.76;81.02
13974;BME280;7060;43.770;4.008;2022-10-28T05:04:36;102108.88;;;15.78;80.79
13974;BME280;7060;43.770;4.008;2022-10-28T05:07:05;102107.16;;;15.77;80.60
13974;BME280;7060;43.770;4.008;2022-10-28T05:09:33;102110.72;;;15.77;80.36
13974;BME280;7060;43.770;4.008;2022-10-28T05:12:01;102118.94;;;15.76;80.33
13974;BME280;7060;43.770;4.008;2022-10-28T05:14:30;102107.59;;;15.72;80.26
13974;BME280;7060;43.770;4.008;2022-10-28T05:16:59;102117.16;;;15.67;80.49
13974;BME280;7060;43.770;4.008;2022-10-28T05:19:27;102118.13;;;15.66;80.53
13974;BME280;7060;43.770;4.008;2022-10-28T05:21:56;102113.75;;;15.65;80.28
13974;BME280;7060;43.770;4.008;2022-10-28T05:24:25;102116.84;;;15.60;80.25
13974;BME280;7060;43.770;4.008;2022-10-28T05:26:53;102117.81;;;15.59;80.12
13974;BME280;7060;43.770;4.008;2022-10-28T05:29:21;102121.53;;;15.58;80.17
13974;BME280;7060;43.770;4.008;2022-10-28T05:31:50;102119.97;;;15.55;79.98
13974;BME280;7060;43.770;4.008;2022-10-28T05:34:18;102121.94;;;15.53;79.59
13974;BME280;7060;43.770;4.008;2022-10-28T05:36:46;102117.84;;;15.49;79.27
13974;BME280;7060;43.770;4.008;2022-10-28T05:39:17;102122.81;;;15.44;79.24
13974;BME280;7060;43.770;4.008;2022-10-28T05:41:46;102111.78;;;15.38;79.19
13974;BME280;7060;43.770;4.008;2022-10-28T05:44:15;102115.88;;;15.32;79.42
13974;BME280;7060;43.770;4.008;2022-10-28T05:46:43;102116.75;;;15.33;79.04
13974;BME280;7060;43.770;4.008;2022-10-28T05:49:11;102102.97;;;15.26;79.31
13974;BME280;7060;43.770;4.008;2022-10-28T05:51:39;102114.75;;;15.25;78.91
13974;BME280;7060;43.770;4.008;2022-10-28T05:54:08;102115.16;;;15.20;78.78
13974;BME280;7060;43.770;4.008;2022-10-28T05:56:38;102116.31;;;15.18;78.52
13974;BME280;7060;43.770;4.008;2022-10-28T05:59:06;102124.13;;;15.11;78.80
13974;BME280;7060;43.770;4.008;2022-10-28T06:01:34;102126.25;;;15.08;79.08
13974;BME280;7060;43.770;4.008;2022-10-28T06:04:03;102137.03;;;15.08;78.78
13974;BME280;7060;43.770;4.008;2022-10-28T06:06:32;102131.19;;;15.03;78.63
13974;BME280;7060;43.770;4.008;2022-10-28T06:09:00;102129.06;;;14.97;78.91
13974;BME280;7060;43.770;4.008;2022-10-28T06:11:29;102137.84;;;14.99;78.89
13974;BME280;7060;43.770;4.008;2022-10-28T06:13:58;102137.28;;;14.95;79.13
13974;BME280;7060;43.770;4.008;2022-10-28T06:16:27;102142.38;;;14.98;79.10
13974;BME280;7060;43.770;4.008;2022-10-28T06:18:55;102140.53;;;14.99;78.93
13974;BME280;7060;43.770;4.008;2022-10-28T06:21:24;102153.28;;;14.97;78.63
13974;BME280;7060;43.770;4.008;2022-10-28T06:23:52;102153.44;;;14.95;78.68
13974;BME280;7060;43.770;4.008;2022-10-28T06:26:20;102167.19;;;14.92;78.75
13974;BME280;7060;43.770;4.008;2022-10-28T06:28:49;102161.06;;;14.90;78.87
13974;BME280;7060;43.770;4.008;2022-10-28T06:31:18;102156.53;;;14.90;78.66
13974;BME280;7060;43.770;4.008;2022-10-28T06:33:47;102152.28;;;14.88;78.59
13974;BME280;7060;43.770;4.008;2022-10-28T06:36:16;102157.41;;;14.81;78.93
13974;BME280;7060;43.770;4.008;2022-10-28T06:38:44;102168.88;;;14.83;78.99
13974;BME280;7060;43.770;4.008;2022-10-28T06:41:13;102173.16;;;14.86;78.68
13974;BME280;7060;43.770;4.008;2022-10-28T06:43:41;102178.66;;;14.84;78.42
13974;BME280;7060;43.770;4.008;2022-10-28T06:46:09;102178.66;;;14.84;78.64
13974;BME280;7060;43.770;4.008;2022-10-28T06:48:39;102177.94;;;14.82;78.56
13974;BME280;7060;43.770;4.008;2022-10-28T06:51:08;102177.94;;;14.82;78.36
13974;BME280;7060;43.770;4.008;2022-10-28T06:53:36;102190.69;;;14.80;78.50
13974;BME280;7060;43.770;4.008;2022-10-28T06:56:05;102179.22;;;14.78;78.45
13974;BME280;7060;43.770;4.008;2022-10-28T06:58:33;102171.56;;;14.83;78.51
13974;BME280;7060;43.770;4.008;2022-10-28T07:01:02;102166.91;;;14.85;78.77
13974;BME280;7060;43.770;4.008;2022-10-28T07:03:31;102169.16;;;14.90;79.16
13974;BME280;7060;43.770;4.008;2022-10-28T07:06:01;102173.84;;;14.98;78.96
13974;BME280;7060;43.770;4.008;2022-10-28T07:08:29;102184.94;;;15.04;79.21
13974;BME280;7060;43.770;4.008;2022-10-28T07:10:59;102192.84;;;15.15;79.34
13974;BME280;7060;43.770;4.008;2022-10-28T07:13:28;102186.78;;;15.23;79.20
13974;BME280;7060;43.770;4.008;2022-10-28T07:15:58;102187.22;;;15.28;79.13
13974;BME280;7060;43.770;4.008;2022-10-28T07:18:28;102194.88;;;15.33;79.49
13974;BME280;7060;43.770;4.008;2022-10-28T07:20:57;102207.06;;;15.46;80.04
13974;BME280;7060;43.770;4.008;2022-10-28T07:23:27;102205.53;;;15.73;80.27
13974;BME280;7060;43.770;4.008;2022-10-28T07:25:57;102203.66;;;15.92;80.04
13974;BME280;7060;43.770;4.008;2022-10-28T07:28:26;102210.84;;;16.11;80.20
13974;BME280;7060;43.770;4.008;2022-10-28T07:30:59;102197.69;;;16.36;80.72
13974;BME280;7060;43.770;4.008;2022-10-28T07:33:27;102207.25;;;16.67;80.68
13974;BME280;7060;43.770;4.008;2022-10-28T07:35:56;102202.84;;;16.93;80.63
13974;BME280;7060;43.770;4.008;2022-10-28T07:38:24;102204.78;;;17.19;79.80
13974;BME280;7060;43.770;4.008;2022-10-28T07:40:54;102217.84;;;17.41;79.23
13974;BME280;7060;43.770;4.008;2022-10-28T07:43:23;102223.28;;;17.59;78.48
13974;BME280;7060;43.770;4.008;2022-10-28T07:45:55;102219.63;;;17.86;78.04
13974;BME280;7060;43.770;4.008;2022-10-28T07:48:23;102231.63;;;18.09;77.51
13974;BME280;7060;43.770;4.008;2022-10-28T07:50:51;102235.44;;;18.24;76.77
13974;BME280;7060;43.770;4.008;2022-10-28T07:53:19;102222.66;;;18.35;75.50
13974;BME280;7060;43.770;4.008;2022-10-28T07:55:55;102217.78;;;18.46;74.61
13974;BME280;7060;43.770;4.008;2022-10-28T07:58:24;102227.34;;;18.50;74.37
13974;BME280;7060;43.770;4.008;2022-10-28T08:00:52;102240.56;;;18.53;74.25
13974;BME280;7060;43.770;4.008;2022-10-28T08:03:21;102239.22;;;18.57;74.34
13974;BME280;7060;43.770;4.008;2022-10-28T08:06:01;102249.22;;;18.57;74.24
13974;BME280;7060;43.770;4.008;2022-10-28T08:08:30;102250.59;;;18.61;74.16
13974;BME280;7060;43.770;4.008;2022-10-28T08:11:07;102247.19;;;18.59;73.79
13974;BME280;7060;43.770;4.008;2022-10-28T08:13:35;102249.53;;;18.54;73.86
13974;BME280;7060;43.770;4.008;2022-10-28T08:16:06;102247.06;;;18.43;74.14
13974;BME280;7060;43.770;4.008;2022-10-28T08:18:35;102244.69;;;18.40;74.73
13974;BME280;7060;43.770;4.008;2022-10-28T08:21:06;102245.72;;;18.47;74.94
13974;BME280;7060;43.770;4.008;2022-10-28T08:23:35;102243.59;;;18.50;74.94
13974;BME280;7060;43.770;4.008;2022-10-28T08:26:06;102239.38;;;18.56;74.91
13974;BME280;7060;43.770;4.008;2022-10-28T08:28:34;102256.69;;;18.63;75.10
13974;BME280;7060;43.770;4.008;2022-10-28T08:31:04;102265.84;;;18.70;74.63
13974;BME280;7060;43.770;4.008;2022-10-28T08:33:35;102248.56;;;18.63;74.42
13974;BME280;7060;43.770;4.008;2022-10-28T08:36:05;102250.97;;;18.66;74.45
13974;BME280;7060;43.770;4.008;2022-10-28T08:38:34;102257.34;;;18.57;74.32
13974;BME280;7060;43.770;4.008;2022-10-28T08:41:18;102257.88;;;18.60;74.29
13974;BME280;7060;43.770;4.008;2022-10-28T08:43:59;102253.94;;;18.55;74.41
13974;BME280;7060;43.770;4.008;2022-10-28T08:46:44;102254.09;;;18.53;74.58
13974;BME280;7060;43.770;4.008;2022-10-28T08:49:17;102252.28;;;18.62;74.99
13974;BME280;7060;43.770;4.008;2022-10-28T08:51:50;102245.72;;;18.73;74.61
13974;BME280;7060;43.770;4.008;2022-10-28T08:54:25;102247.31;;;18.83;74.73
13974;BME280;7060;43.770;4.008;2022-10-28T08:56:57;102234.47;;;18.93;74.04
13974;BME280;7060;43.770;4.008;2022-10-28T08:59:31;102223.97;;;18.99;73.95
13974;BME280;7060;43.770;4.008;2022-10-28T09:02:03;102219.06;;;18.94;73.75
13974;BME280;7060;43.770;4.008;2022-10-28T09:04:41;102224.31;;;18.96;74.06
13974;BME280;7060;43.770;4.008;2022-10-28T09:07:15;102122.16;;;18.38;74.31
13974;BME280;7060;43.770;4.008;2022-10-28T09:09:44;102220.97;;;19.10;74.48
13974;BME280;7060;43.770;4.008;2022-10-28T09:12:23;102214.88;;;19.16;73.58
13974;BME280;7060;43.770;4.008;2022-10-28T09:15:08;102229.81;;;19.20;73.85
13974;BME280;7060;43.770;4.008;2022-10-28T09:17:49;102224.38;;;19.20;73.77
13974;BME280;7060;43.770;4.008;2022-10-28T09:20:20;102216.09;;;19.21;73.48
13974;BME280;7060;43.770;4.008;2022-10-28T09:22:55;102225.91;;;19.22;73.12
13974;BME280;7060;43.770;4.008;2022-10-28T09:25:30;102229.63;;;19.21;73.06
13974;BME280;7060;43.770;4.008;2022-10-28T09:28:16;102234.22;;;19.29;73.19
13974;BME280;7060;43.770;4.008;2022-10-28T09:30:55;102228.84;;;19.37;73.53
13974;BME280;7060;43.770;4.008;2022-10-28T09:33:39;102232.59;;;19.44;73.27
13974;BME280;7060;43.770;4.008;2022-10-28T09:36:14;102233.63;;;19.51;73.16
13974;BME280;7060;43.770;4.008;2022-10-28T09:38:44;102131.97;;;18.97;72.80
13974;BME280;7060;43.770;4.008;2022-10-28T09:41:17;102240.06;;;19.67;72.78
13974;BME280;7060;43.770;4.008;2022-10-28T09:43:50;102238.22;;;19.75;72.69
13974;BME280;7060;43.770;4.008;2022-10-28T09:46:21;102229.72;;;19.70;72.83
13974;BME280;7060;43.770;4.008;2022-10-28T09:48:52;102239.72;;;19.86;72.43
13974;BME280;7060;43.770;4.008;2022-10-28T09:51:28;102236.81;;;19.87;71.59
13974;BME280;7060;43.770;4.008;2022-10-28T09:53:59;102237.34;;;19.91;71.99
13974;BME280;7060;43.770;4.008;2022-10-28T09:56:29;102238.53;;;19.97;72.14
13974;BME280;7060;43.770;4.008;2022-10-28T09:59:00;102233.28;;;20.03;72.10
13974;BME280;7060;43.770;4.008;2022-10-28T10:01:31;102231.22;;;20.05;71.70
13974;BME280;7060;43.770;4.008;2022-10-28T10:04:00;102234.97;;;20.04;71.52
13974;BME280;7060;43.770;4.008;2022-10-28T10:06:31;102231.41;;;20.04;71.80
13974;BME280;7060;43.770;4.008;2022-10-28T10:09:02;102235.63;;;20.06;71.91
13974;BME280;7060;43.770;4.008;2022-10-28T10:11:33;102235.09;;;20.11;72.16
13974;BME280;7060;43.770;4.008;2022-10-28T10:14:07;102231.69;;;20.17;72.45
13974;BME280;7060;43.770;4.008;2022-10-28T10:16:40;102233.09;;;20.21;72.32
13974;BME280;7060;43.770;4.008;2022-10-28T10:19:09;102236.81;;;20.28;71.97
13974;BME280;7060;43.770;4.008;2022-10-28T10:21:41;102232.19;;;20.37;71.50
13974;BME280;7060;43.770;4.008;2022-10-28T10:24:30;102233.53;;;20.49;71.08
13974;BME280;7060;43.770;4.008;2022-10-28T10:27:00;102235.56;;;20.55;70.70
13974;BME280;7060;43.770;4.008;2022-10-28T10:29:33;102230.06;;;20.63;70.52
13974;BME280;7060;43.770;4.008;2022-10-28T10:32:12;102227.69;;;20.68;70.48
13974;BME280;7060;43.770;4.008;2022-10-28T10:34:43;102228.00;;;20.73;70.23
13974;BME280;7060;43.770;4.008;2022-10-28T10:37:17;102181.22;;;20.55;69.51
13974;BME280;7060;43.770;4.008;2022-10-28T10:39:59;102226.94;;;20.82;69.89
13974;BME280;7060;43.770;4.008;2022-10-28T10:42:28;102232.03;;;20.85;69.62
13974;BME280;7060;43.770;4.008;2022-10-28T10:45:01;102225.19;;;20.89;69.34
13974;BME280;7060;43.770;4.008;2022-10-28T10:47:30;102225.41;;;20.88;68.71
13974;BME280;7060;43.770;4.008;2022-10-28T10:50:19;102227.72;;;20.91;67.94
13974;BME280;7060;43.770;4.008;2022-10-28T10:52:53;102211.25;;;20.92;68.15
13974;BME280;7060;43.770;4.008;2022-10-28T10:55:41;102205.28;;;20.97;67.46
13974;BME280;7060;43.770;4.008;2022-10-28T10:58:18;102205.94;;;20.99;67.40
13974;BME280;7060;43.770;4.008;2022-10-28T11:00:49;102201.88;;;21.03;67.23
13974;BME280;7060;43.770;4.008;2022-10-28T11:03:23;102199.47;;;21.08;66.27
13974;BME280;7060;43.770;4.008;2022-10-28T11:05:54;102194.88;;;21.09;65.84
13974;BME280;7060;43.770;4.008;2022-10-28T11:08:43;102196.59;;;21.10;66.17
13974;BME280;7060;43.770;4.008;2022-10-28T11:11:13;102186.56;;;21.10;65.69
13974;BME280;7060;43.770;4.008;2022-10-28T11:13:42;102094.94;;;20.57;65.95
13974;BME280;7060;43.770;4.008;2022-10-28T11:16:20;102186.38;;;21.12;65.88
13974;BME280;7060;43.770;4.008;2022-10-28T11:18:50;102154.34;;;20.91;66.47
13974;BME280;7060;43.770;4.008;2022-10-28T11:21:39;102181.13;;;21.10;66.67
13974;BME280;7060;43.770;4.008;2022-10-28T11:24:48;102186.25;;;21.05;66.73
13974;BME280;7060;43.770;4.008;2022-10-28T11:27:28;102186.06;;;21.07;66.77
13974;BME280;7060;43.770;4.008;2022-10-28T11:30:02;102169.03;;;21.13;66.48
13974;BME280;7060;43.770;4.008;2022-10-28T11:32:42;102173.19;;;21.23;66.14
13974;BME280;7060;43.770;4.008;2022-10-28T11:35:41;102168.91;;;21.29;65.57
13974;BME280;7060;43.770;4.008;2022-10-28T11:38:23;102168.84;;;21.37;65.09
13974;BME280;7060;43.770;4.008;2022-10-28T11:41:06;102164.75;;;21.41;65.65
13974;BME280;7060;43.770;4.008;2022-10-28T11:43:47;102161.63;;;21.44;65.45
13974;BME280;7060;43.770;4.008;2022-10-28T11:46:31;102153.84;;;21.41;65.38
13974;BME280;7060;43.770;4.008;2022-10-28T11:49:30;102162.56;;;21.37;65.69
13974;BME280;7060;43.770;4.008;2022-10-28T11:52:13;102161.41;;;21.31;65.41
13974;BME280;7060;43.770;4.008;2022-10-28T11:54:56;102159.84;;;21.37;64.50
13974;BME280;7060;43.770;4.008;2022-10-28T11:57:40;102149.81;;;21.37;64.17
13974;BME280;7060;43.770;4.008;2022-10-28T12:00:35;102152.84;;;21.42;64.82
13974;BME280;7060;43.770;4.008;2022-10-28T12:03:23;102137.44;;;21.49;63.89
13974;BME280;7060;43.770;4.008;2022-10-28T12:06:02;102137.91;;;21.53;63.47
13974;BME280;7060;43.770;4.008;2022-10-28T12:08:45;102137.38;;;21.57;63.14
13974;BME280;7060;43.770;4.008;2022-10-28T12:11:24;102137.50;;;21.64;63.00
13974;BME280;7060;43.770;4.008;2022-10-28T12:14:00;102132.78;;;21.73;62.25
13974;BME280;7060;43.770;4.008;2022-10-28T12:16:37;102140.91;;;21.81;62.42
13974;BME280;7060;43.770;4.008;2022-10-28T12:19:11;102132.00;;;21.87;62.31
13974;BME280;7060;43.770;4.008;2022-10-28T12:21:57;102117.91;;;21.98;63.08
13974;BME280;7060;43.770;4.008;2022-10-28T12:24:28;102107.69;;;22.00;63.46
13974;BME280;7060;43.770;4.008;2022-10-28T12:27:05;102116.44;;;22.10;63.18
13974;BME280;7060;43.770;4.008;2022-10-28T12:29:47;102114.19;;;22.14;62.76
13974;BME280;7060;43.770;4.008;2022-10-28T12:32:20;102119.63;;;22.14;61.97
13974;BME280;7060;43.770;4.008;2022-10-28T12:34:53;102109.56;;;22.14;61.47
13974;BME280;7060;43.770;4.008;2022-10-28T12:37:29;102110.59;;;22.28;61.19
13974;BME280;7060;43.770;4.008;2022-10-28T12:40:06;102103.34;;;22.35;61.44
13974;BME280;7060;43.770;4.008;2022-10-28T12:42:36;102099.41;;;22.38;60.77
13974;BME280;7060;43.770;4.008;2022-10-28T12:45:11;102094.88;;;22.45;59.86
13974;BME280;7060;43.770;4.008;2022-10-28T12:47:44;102090.28;;;22.45;59.62
13974;BME280;7060;43.770;4.008;2022-10-28T12:50:20;102083.13;;;22.44;59.24
13974;BME280;7060;43.770;4.008;2022-10-28T12:53:11;102090.84;;;22.41;58.96
13974;BME280;7060;43.770;4.008;2022-10-28T12:55:47;102089.53;;;22.37;57.38
13974;BME280;7060;43.770;4.008;2022-10-28T12:58:21;102088.88;;;22.35;58.47
13974;BME280;7060;43.770;4.008;2022-10-28T13:00:54;102041.09;;;22.03;57.72
13974;BME280;7060;43.770;4.008;2022-10-28T13:03:23;102079.09;;;22.25;58.06
13974;BME280;7060;43.770;4.008;2022-10-28T13:06:01;102078.28;;;22.25;57.68
13974;BME280;7060;43.770;4.008;2022-10-28T13:09:00;102077.44;;;22.24;58.53
13974;BME280;7060;43.770;4.008;2022-10-28T13:15:09;102069.00;;;22.19;58.99
13974;BME280;7060;43.770;4.008;2022-10-28T13:17:48;102060.63;;;22.21;59.66
13974;BME280;7060;43.770;4.008;2022-10-28T13:20:27;102049.38;;;22.24;59.76
13974;BME280;7060;43.770;4.008;2022-10-28T13:23:19;102052.28;;;22.22;59.75
13974;BME280;7060;43.770;4.008;2022-10-28T13:25:59;102052.28;;;22.22;59.69
13974;BME280;7060;43.770;4.008;2022-10-28T13:28:33;102050.22;;;22.24;59.74
13974;BME280;7060;43.770;4.008;2022-10-28T13:31:05;102051.88;;;22.25;59.67
13974;BME280;7060;43.770;4.008;2022-10-28T13:33:35;102044.75;;;22.24;59.05
13974;BME280;7060;43.770;4.008;2022-10-28T13:36:10;102052.09;;;22.24;59.26
13974;BME280;7060;43.770;4.008;2022-10-28T13:38:47;102047.50;;;22.24;59.11
13974;BME280;7060;43.770;4.008;2022-10-28T13:41:35;102039.94;;;22.26;59.46